sensor_id;sensor_type;location;lat;lon;timestamp;temperature;humidity
18339;DHT22;9295;44.484;11.240;2022-07-18T00:00:56;24.20;99.90
18339;DHT22;9295;44.484;11.240;2022-07-18T00:03:25;24.20;99.90
18339;DHT22;9295;44.484;11.240;2022-07-18T00:05:55;24.10;99.90
18339;DHT22;9295;44.484;11.240;2022-07-18T00:08:23;24.10;99.90
18339;DHT22;9295;44.484;11.240;2022-07-18T00:10:52;24.00;99.90
18339;DHT22;9295;44.484;11.240;2022-07-18T00:13:20;24.00;99.90
18339;DHT22;9295;44.484;11.240;2022-07-18T00:15:54;23.90;99.90
18339;DHT22;9295;44.484;11.240;2022-07-18T00:18:23;23.90;99.90
18339;DHT22;9295;44.484;11.240;2022-07-18T00:20:51;23.90;99.90
18339;DHT22;9295;44.484;11.240;2022-07-18T00:23:20;23.90;99.90
18339;DHT22;9295;44.484;11.240;2022-07-18T00:25:49;23.90;99.90
18339;DHT22;9295;44.484;11.240;2022-07-18T00:28:17;23.90;99.90
18339;DHT22;9295;44.484;11.240;2022-07-18T00:30:46;23.90;99.90
18339;DHT22;9295;44.484;11.240;2022-07-18T00:33:16;23.90;99.90
18339;DHT22;9295;44.484;11.240;2022-07-18T00:35:47;23.80;99.90
18339;DHT22;9295;44.484;11.240;2022-07-18T00:38:17;23.70;99.90
18339;DHT22;9295;44.484;11.240;2022-07-18T00:40:45;23.70;99.90
18339;DHT22;9295;44.484;11.240;2022-07-18T00:43:14;23.70;99.90
18339;DHT22;9295;44.484;11.240;2022-07-18T00:45:50;23.60;99.90
18339;DHT22;9295;44.484;11.240;2022-07-18T00:48:23;23.60;99.90
18339;DHT22;9295;44.484;11.240;2022-07-18T00:50:52;23.60;99.90
18339;DHT22;9295;44.484;11.240;2022-07-18T00:53:21;23.50;99.90
18339;DHT22;9295;44.484;11.240;2022-07-18T00:55:52;23.50;99.90
18339;DHT22;9295;44.484;11.240;2022-07-18T00:58:21;23.40;99.90
18339;DHT22;9295;44.484;11.240;2022-07-18T01:00:50;23.30;99.90
18339;DHT22;9295;44.484;11.240;2022-07-18T01:03:38;23.30;99.90
18339;DHT22;9295;44.484;11.240;2022-07-18T01:06:06;23.30;99.90
18339;DHT22;9295;44.484;11.240;2022-07-18T01:08:35;23.30;99.90
18339;DHT22;9295;44.484;11.240;2022-07-18T01:11:05;23.30;99.90
18339;DHT22;9295;44.484;11.240;2022-07-18T01:13:34;23.30;99.90
18339;DHT22;9295;44.484;11.240;2022-07-18T01:16:03;23.30;99.90
18339;DHT22;9295;44.484;11.240;2022-07-18T01:18:32;23.20;99.90
18339;DHT22;9295;44.484;11.240;2022-07-18T01:21:02;23.20;99.90
18339;DHT22;9295;44.484;11.240;2022-07-18T01:23:31;23.20;99.90
18339;DHT22;9295;44.484;11.240;2022-07-18T01:26:00;23.10;99.90
18339;DHT22;9295;44.484;11.240;2022-07-18T01:28:30;23.10;99.90
18339;DHT22;9295;44.484;11.240;2022-07-18T01:30:59;23.00;99.90
18339;DHT22;9295;44.484;11.240;2022-07-18T01:33:30;23.00;99.90
18339;DHT22;9295;44.484;11.240;2022-07-18T01:35:58;23.00;99.90
18339;DHT22;9295;44.484;11.240;2022-07-18T01:38:29;22.90;99.90
18339;DHT22;9295;44.484;11.240;2022-07-18T01:40:58;22.90;99.90
18339;DHT22;9295;44.484;11.240;2022-07-18T01:43:27;22.90;99.90
18339;DHT22;9295;44.484;11.240;2022-07-18T01:45:56;22.80;99.90
18339;DHT22;9295;44.484;11.240;2022-07-18T01:48:25;22.80;99.90
18339;DHT22;9295;44.484;11.240;2022-07-18T01:50:53;22.70;99.90
18339;DHT22;9295;44.484;11.240;2022-07-18T01:53:22;22.70;99.90
18339;DHT22;9295;44.484;11.240;2022-07-18T01:55:56;22.70;99.90
18339;DHT22;9295;44.484;11.240;2022-07-18T01:58:25;22.60;99.90
18339;DHT22;9295;44.484;11.240;2022-07-18T02:00:53;22.70;99.90
18339;DHT22;9295;44.484;11.240;2022-07-18T02:03:22;22.70;99.90
18339;DHT22;9295;44.484;11.240;2022-07-18T02:05:50;22.70;99.90
18339;DHT22;9295;44.484;11.240;2022-07-18T02:08:21;22.70;99.90
18339;DHT22;9295;44.484;11.240;2022-07-18T02:10:52;22.70;99.90
18339;DHT22;9295;44.484;11.240;2022-07-18T02:13:23;22.80;99.90
18339;DHT22;9295;44.484;11.240;2022-07-18T02:15:54;22.90;99.90
18339;DHT22;9295;44.484;11.240;2022-07-18T02:18:23;22.90;99.90
18339;DHT22;9295;44.484;11.240;2022-07-18T02:20:52;22.90;99.90
18339;DHT22;9295;44.484;11.240;2022-07-18T02:23:20;22.90;99.90
18339;DHT22;9295;44.484;11.240;2022-07-18T02:25:49;22.80;99.90
18339;DHT22;9295;44.484;11.240;2022-07-18T02:28:18;22.80;99.90
18339;DHT22;9295;44.484;11.240;2022-07-18T02:30:48;22.70;99.90
18339;DHT22;9295;44.484;11.240;2022-07-18T02:33:17;22.70;99.90
18339;DHT22;9295;44.484;11.240;2022-07-18T02:35:46;22.60;99.90
18339;DHT22;9295;44.484;11.240;2022-07-18T02:38:14;22.60;99.90
18339;DHT22;9295;44.484;11.240;2022-07-18T02:40:48;22.60;99.90
18339;DHT22;9295;44.484;11.240;2022-07-18T02:43:17;22.60;99.90
18339;DHT22;9295;44.484;11.240;2022-07-18T02:45:45;22.60;99.90
18339;DHT22;9295;44.484;11.240;2022-07-18T02:48:15;22.60;99.90
18339;DHT22;9295;44.484;11.240;2022-07-18T02:50:44;22.60;99.90
18339;DHT22;9295;44.484;11.240;2022-07-18T02:53:15;22.60;99.90
18339;DHT22;9295;44.484;11.240;2022-07-18T02:55:46;22.60;99.90
18339;DHT22;9295;44.484;11.240;2022-07-18T02:58:18;22.60;99.90
18339;DHT22;9295;44.484;11.240;2022-07-18T03:00:47;22.50;99.90
18339;DHT22;9295;44.484;11.240;2022-07-18T03:03:17;22.60;99.90
18339;DHT22;9295;44.484;11.240;2022-07-18T03:05:46;22.60;99.90
18339;DHT22;9295;44.484;11.240;2022-07-18T03:08:14;22.60;99.90
18339;DHT22;9295;44.484;11.240;2022-07-18T03:10:46;22.60;99.90
18339;DHT22;9295;44.484;11.240;2022-07-18T03:13:15;22.60;99.90
18339;DHT22;9295;44.484;11.240;2022-07-18T03:15:44;22.50;99.90
18339;DHT22;9295;44.484;11.240;2022-07-18T03:18:15;22.60;99.90
18339;DHT22;9295;44.484;11.240;2022-07-18T03:20:45;22.60;99.90
18339;DHT22;9295;44.484;11.240;2022-07-18T03:23:16;22.60;99.90
18339;DHT22;9295;44.484;11.240;2022-07-18T03:25:47;22.60;99.90
18339;DHT22;9295;44.484;11.240;2022-07-18T03:28:16;22.50;99.90
18339;DHT22;9295;44.484;11.240;2022-07-18T03:30:44;22.50;99.90
18339;DHT22;9295;44.484;11.240;2022-07-18T03:33:13;22.40;99.90
18339;DHT22;9295;44.484;11.240;2022-07-18T03:35:42;22.40;99.90
18339;DHT22;9295;44.484;11.240;2022-07-18T03:38:12;22.40;99.90
18339;DHT22;9295;44.484;11.240;2022-07-18T03:40:43;22.40;99.90
18339;DHT22;9295;44.484;11.240;2022-07-18T03:43:12;22.40;99.90
18339;DHT22;9295;44.484;11.240;2022-07-18T03:45:40;22.40;99.90
18339;DHT22;9295;44.484;11.240;2022-07-18T03:48:12;22.40;99.90
18339;DHT22;9295;44.484;11.240;2022-07-18T03:50:41;22.40;99.90
18339;DHT22;9295;44.484;11.240;2022-07-18T03:53:11;22.40;99.90
18339;DHT22;9295;44.484;11.240;2022-07-18T03:55:40;22.50;99.90
18339;DHT22;9295;44.484;11.240;2022-07-18T03:58:09;22.50;99.90
18339;DHT22;9295;44.484;11.240;2022-07-18T04:00:40;22.50;99.90
18339;DHT22;9295;44.484;11.240;2022-07-18T04:03:09;22.50;99.90
18339;DHT22;9295;44.484;11.240;2022-07-18T04:05:37;22.50;99.90
18339;DHT22;9295;44.484;11.240;2022-07-18T04:08:06;22.50;99.90
18339;DHT22;9295;44.484;11.240;2022-07-18T04:10:36;22.50;99.90
18339;DHT22;9295;44.484;11.240;2022-07-18T04:13:07;22.50;99.90
18339;DHT22;9295;44.484;11.240;2022-07-18T04:15:37;22.50;99.90
18339;DHT22;9295;44.484;11.240;2022-07-18T04:18:07;22.50;99.90
18339;DHT22;9295;44.484;11.240;2022-07-18T04:20:37;22.50;99.90
18339;DHT22;9295;44.484;11.240;2022-07-18T04:23:08;22.50;99.90
18339;DHT22;9295;44.484;11.240;2022-07-18T04:25:39;22.50;99.90
18339;DHT22;9295;44.484;11.240;2022-07-18T04:28:10;22.50;99.90
18339;DHT22;9295;44.484;11.240;2022-07-18T04:30:41;22.50;99.90
18339;DHT22;9295;44.484;11.240;2022-07-18T04:33:11;22.50;99.90
18339;DHT22;9295;44.484;11.240;2022-07-18T04:35:40;22.60;99.90
18339;DHT22;9295;44.484;11.240;2022-07-18T04:38:10;22.60;99.90
18339;DHT22;9295;44.484;11.240;2022-07-18T04:40:41;22.70;99.90
18339;DHT22;9295;44.484;11.240;2022-07-18T04:43:10;22.80;99.90
18339;DHT22;9295;44.484;11.240;2022-07-18T04:45:39;22.80;99.90
18339;DHT22;9295;44.484;11.240;2022-07-18T04:48:09;22.90;99.90
18339;DHT22;9295;44.484;11.240;2022-07-18T04:50:37;22.90;99.90
18339;DHT22;9295;44.484;11.240;2022-07-18T04:53:06;22.90;99.90
18339;DHT22;9295;44.484;11.240;2022-07-18T04:55:34;23.00;99.90
18339;DHT22;9295;44.484;11.240;2022-07-18T04:58:04;23.00;99.90
18339;DHT22;9295;44.484;11.240;2022-07-18T05:00:33;23.10;99.90
18339;DHT22;9295;44.484;11.240;2022-07-18T05:03:02;23.20;99.90
18339;DHT22;9295;44.484;11.240;2022-07-18T05:05:30;23.40;99.90
18339;DHT22;9295;44.484;11.240;2022-07-18T05:08:03;23.50;99.90
18339;DHT22;9295;44.484;11.240;2022-07-18T05:10:33;23.60;99.90
18339;DHT22;9295;44.484;11.240;2022-07-18T05:13:01;23.70;99.90
18339;DHT22;9295;44.484;11.240;2022-07-18T05:15:31;23.80;99.90
18339;DHT22;9295;44.484;11.240;2022-07-18T05:18:00;24.00;99.90
18339;DHT22;9295;44.484;11.240;2022-07-18T05:20:29;24.10;99.90
18339;DHT22;9295;44.484;11.240;2022-07-18T05:22:57;24.30;99.90
18339;DHT22;9295;44.484;11.240;2022-07-18T05:25:26;24.50;99.90
18339;DHT22;9295;44.484;11.240;2022-07-18T05:27:54;24.60;99.90
18339;DHT22;9295;44.484;11.240;2022-07-18T05:30:23;24.80;99.90
18339;DHT22;9295;44.484;11.240;2022-07-18T05:32:54;24.90;99.90
18339;DHT22;9295;44.484;11.240;2022-07-18T05:35:22;25.10;99.90
18339;DHT22;9295;44.484;11.240;2022-07-18T05:37:51;25.20;99.90
18339;DHT22;9295;44.484;11.240;2022-07-18T05:40:19;25.40;99.90
18339;DHT22;9295;44.484;11.240;2022-07-18T05:42:48;25.60;99.90
18339;DHT22;9295;44.484;11.240;2022-07-18T05:45:20;25.80;99.90
18339;DHT22;9295;44.484;11.240;2022-07-18T05:47:50;25.90;99.90
18339;DHT22;9295;44.484;11.240;2022-07-18T05:50:20;26.00;99.90
18339;DHT22;9295;44.484;11.240;2022-07-18T05:52:49;26.10;99.90
18339;DHT22;9295;44.484;11.240;2022-07-18T05:55:18;26.10;99.90
18339;DHT22;9295;44.484;11.240;2022-07-18T05:57:47;26.10;99.90
18339;DHT22;9295;44.484;11.240;2022-07-18T06:00:20;26.10;99.90
18339;DHT22;9295;44.484;11.240;2022-07-18T06:02:50;26.10;99.90
18339;DHT22;9295;44.484;11.240;2022-07-18T06:05:21;26.10;99.90
18339;DHT22;9295;44.484;11.240;2022-07-18T06:07:53;26.20;99.90
18339;DHT22;9295;44.484;11.240;2022-07-18T06:10:22;26.30;99.90
18339;DHT22;9295;44.484;11.240;2022-07-18T06:12:51;26.50;99.90
18339;DHT22;9295;44.484;11.240;2022-07-18T06:15:20;26.60;99.90
18339;DHT22;9295;44.484;11.240;2022-07-18T06:17:49;26.60;99.90
18339;DHT22;9295;44.484;11.240;2022-07-18T06:20:18;26.70;99.90
18339;DHT22;9295;44.484;11.240;2022-07-18T06:22:51;26.90;99.90
18339;DHT22;9295;44.484;11.240;2022-07-18T06:25:21;27.00;99.90
18339;DHT22;9295;44.484;11.240;2022-07-18T06:27:50;27.10;99.90
18339;DHT22;9295;44.484;11.240;2022-07-18T06:30:19;27.30;99.90
18339;DHT22;9295;44.484;11.240;2022-07-18T06:32:51;27.50;99.90
18339;DHT22;9295;44.484;11.240;2022-07-18T06:35:21;27.70;99.90
18339;DHT22;9295;44.484;11.240;2022-07-18T06:37:51;27.90;99.90
18339;DHT22;9295;44.484;11.240;2022-07-18T06:40:22;28.20;99.90
18339;DHT22;9295;44.484;11.240;2022-07-18T06:42:52;28.30;99.90
18339;DHT22;9295;44.484;11.240;2022-07-18T06:45:21;28.50;99.90
18339;DHT22;9295;44.484;11.240;2022-07-18T06:47:52;28.70;99.90
18339;DHT22;9295;44.484;11.240;2022-07-18T06:50:20;28.90;99.90
18339;DHT22;9295;44.484;11.240;2022-07-18T06:52:50;29.00;99.90
18339;DHT22;9295;44.484;11.240;2022-07-18T06:55:19;29.30;99.90
18339;DHT22;9295;44.484;11.240;2022-07-18T06:57:48;29.60;99.90
18339;DHT22;9295;44.484;11.240;2022-07-18T07:00:16;29.90;99.90
18339;DHT22;9295;44.484;11.240;2022-07-18T07:02:47;30.00;99.90
18339;DHT22;9295;44.484;11.240;2022-07-18T07:05:17;30.20;99.90
18339;DHT22;9295;44.484;11.240;2022-07-18T07:07:50;30.30;99.90
18339;DHT22;9295;44.484;11.240;2022-07-18T07:10:20;30.60;99.90
18339;DHT22;9295;44.484;11.240;2022-07-18T07:12:50;30.80;99.90
18339;DHT22;9295;44.484;11.240;2022-07-18T07:15:21;30.80;99.90
18339;DHT22;9295;44.484;11.240;2022-07-18T07:17:51;30.80;99.90
18339;DHT22;9295;44.484;11.240;2022-07-18T07:20:19;30.80;99.90
18339;DHT22;9295;44.484;11.240;2022-07-18T07:22:52;30.80;99.90
18339;DHT22;9295;44.484;11.240;2022-07-18T07:25:23;30.90;99.90
18339;DHT22;9295;44.484;11.240;2022-07-18T07:27:52;30.90;99.90
18339;DHT22;9295;44.484;11.240;2022-07-18T07:30:22;31.00;99.90
18339;DHT22;9295;44.484;11.240;2022-07-18T07:32:51;30.90;99.90
18339;DHT22;9295;44.484;11.240;2022-07-18T07:35:20;30.90;99.90
18339;DHT22;9295;44.484;11.240;2022-07-18T07:37:54;31.00;99.90
18339;DHT22;9295;44.484;11.240;2022-07-18T07:40:24;31.10;99.90
18339;DHT22;9295;44.484;11.240;2022-07-18T07:43:04;31.20;99.90
18339;DHT22;9295;44.484;11.240;2022-07-18T07:45:34;30.90;99.90
18339;DHT22;9295;44.484;11.240;2022-07-18T07:48:04;30.80;99.90
18339;DHT22;9295;44.484;11.240;2022-07-18T07:50:33;30.90;99.90
18339;DHT22;9295;44.484;11.240;2022-07-18T07:53:03;31.10;99.90
18339;DHT22;9295;44.484;11.240;2022-07-18T07:55:31;31.40;99.90
18339;DHT22;9295;44.484;11.240;2022-07-18T07:58:00;31.40;99.40
18339;DHT22;9295;44.484;11.240;2022-07-18T08:00:32;31.40;97.90
18339;DHT22;9295;44.484;11.240;2022-07-18T08:03:04;31.50;97.90
18339;DHT22;9295;44.484;11.240;2022-07-18T08:05:37;31.30;97.20
18339;DHT22;9295;44.484;11.240;2022-07-18T08:08:07;31.20;97.30
18339;DHT22;9295;44.484;11.240;2022-07-18T08:10:39;31.20;97.80
18339;DHT22;9295;44.484;11.240;2022-07-18T08:13:11;31.10;97.50
18339;DHT22;9295;44.484;11.240;2022-07-18T08:15:40;31.20;97.40
18339;DHT22;9295;44.484;11.240;2022-07-18T08:18:12;31.20;96.40
18339;DHT22;9295;44.484;11.240;2022-07-18T08:20:40;31.10;96.20
18339;DHT22;9295;44.484;11.240;2022-07-18T08:23:10;31.00;95.90
18339;DHT22;9295;44.484;11.240;2022-07-18T08:25:41;31.10;96.10
18339;DHT22;9295;44.484;11.240;2022-07-18T08:28:11;31.30;96.20
18339;DHT22;9295;44.484;11.240;2022-07-18T08:30:40;31.40;95.10
18339;DHT22;9295;44.484;11.240;2022-07-18T08:33:09;31.40;95.10
18339;DHT22;9295;44.484;11.240;2022-07-18T08:35:43;31.50;94.90
18339;DHT22;9295;44.484;11.240;2022-07-18T08:38:13;31.20;94.50
18339;DHT22;9295;44.484;11.240;2022-07-18T08:40:42;31.00;95.80
18339;DHT22;9295;44.484;11.240;2022-07-18T08:43:11;31.30;95.90
18339;DHT22;9295;44.484;11.240;2022-07-18T08:45:51;31.40;95.60
18339;DHT22;9295;44.484;11.240;2022-07-18T08:48:23;31.60;95.00
18339;DHT22;9295;44.484;11.240;2022-07-18T08:50:52;31.60;94.90
18339;DHT22;9295;44.484;11.240;2022-07-18T08:53:23;31.70;95.00
18339;DHT22;9295;44.484;11.240;2022-07-18T08:55:51;31.70;93.60
18339;DHT22;9295;44.484;11.240;2022-07-18T08:58:20;31.60;94.40
18339;DHT22;9295;44.484;11.240;2022-07-18T09:01:09;31.40;93.60
18339;DHT22;9295;44.484;11.240;2022-07-18T09:03:38;31.40;93.80
18339;DHT22;9295;44.484;11.240;2022-07-18T09:06:09;31.40;93.40
18339;DHT22;9295;44.484;11.240;2022-07-18T09:11:24;31.20;92.80
18339;DHT22;9295;44.484;11.240;2022-07-18T09:14:27;31.10;92.90
18339;DHT22;9295;44.484;11.240;2022-07-18T09:17:04;31.10;92.90
18339;DHT22;9295;44.484;11.240;2022-07-18T09:19:34;31.10;93.00
18339;DHT22;9295;44.484;11.240;2022-07-18T09:22:14;31.10;93.80
18339;DHT22;9295;44.484;11.240;2022-07-18T09:24:57;31.10;93.50
18339;DHT22;9295;44.484;11.240;2022-07-18T09:27:34;30.90;93.60
18339;DHT22;9295;44.484;11.240;2022-07-18T09:30:24;30.70;93.80
18339;DHT22;9295;44.484;11.240;2022-07-18T09:33:08;30.70;93.80
18339;DHT22;9295;44.484;11.240;2022-07-18T09:35:42;30.60;94.50
18339;DHT22;9295;44.484;11.240;2022-07-18T09:38:13;30.80;95.20
18339;DHT22;9295;44.484;11.240;2022-07-18T09:40:45;30.90;95.20
18339;DHT22;9295;44.484;11.240;2022-07-18T09:43:15;31.10;94.80
18339;DHT22;9295;44.484;11.240;2022-07-18T09:45:45;31.10;94.60
18339;DHT22;9295;44.484;11.240;2022-07-18T09:48:17;31.10;94.50
18339;DHT22;9295;44.484;11.240;2022-07-18T09:50:50;31.20;94.90
18339;DHT22;9295;44.484;11.240;2022-07-18T09:53:21;31.30;94.40
18339;DHT22;9295;44.484;11.240;2022-07-18T09:56:03;31.30;94.00
18339;DHT22;9295;44.484;11.240;2022-07-18T09:58:35;31.10;94.00
18339;DHT22;9295;44.484;11.240;2022-07-18T10:01:07;31.30;93.90
18339;DHT22;9295;44.484;11.240;2022-07-18T10:03:36;31.20;94.00
18339;DHT22;9295;44.484;11.240;2022-07-18T10:06:07;30.90;94.00
18339;DHT22;9295;44.484;11.240;2022-07-18T10:08:36;30.80;93.70
18339;DHT22;9295;44.484;11.240;2022-07-18T10:11:07;30.90;93.90
18339;DHT22;9295;44.484;11.240;2022-07-18T10:13:37;31.00;93.90
18339;DHT22;9295;44.484;11.240;2022-07-18T10:16:07;31.00;94.20
18339;DHT22;9295;44.484;11.240;2022-07-18T10:18:38;30.90;93.90
18339;DHT22;9295;44.484;11.240;2022-07-18T10:21:10;30.70;93.90
18339;DHT22;9295;44.484;11.240;2022-07-18T10:23:40;30.70;94.40
18339;DHT22;9295;44.484;11.240;2022-07-18T10:26:16;30.80;94.50
18339;DHT22;9295;44.484;11.240;2022-07-18T10:29:09;31.10;94.30
18339;DHT22;9295;44.484;11.240;2022-07-18T10:31:39;31.10;94.00
18339;DHT22;9295;44.484;11.240;2022-07-18T10:34:12;31.30;94.50
18339;DHT22;9295;44.484;11.240;2022-07-18T10:37:07;31.40;94.60
18339;DHT22;9295;44.484;11.240;2022-07-18T10:39:39;31.50;94.30
18339;DHT22;9295;44.484;11.240;2022-07-18T10:42:15;31.40;94.00
18339;DHT22;9295;44.484;11.240;2022-07-18T10:44:46;31.40;94.30
18339;DHT22;9295;44.484;11.240;2022-07-18T10:47:16;31.50;94.30
18339;DHT22;9295;44.484;11.240;2022-07-18T10:50:07;31.60;94.50
18339;DHT22;9295;44.484;11.240;2022-07-18T10:52:55;31.60;94.50
18339;DHT22;9295;44.484;11.240;2022-07-18T10:55:31;31.60;93.90
18339;DHT22;9295;44.484;11.240;2022-07-18T10:58:17;31.70;93.50
18339;DHT22;9295;44.484;11.240;2022-07-18T11:00:49;31.80;93.70
18339;DHT22;9295;44.484;11.240;2022-07-18T11:03:28;31.70;93.30
18339;DHT22;9295;44.484;11.240;2022-07-18T11:05:57;31.50;93.80
18339;DHT22;9295;44.484;11.240;2022-07-18T11:08:30;31.20;94.20
18339;DHT22;9295;44.484;11.240;2022-07-18T11:11:10;31.20;94.60
18339;DHT22;9295;44.484;11.240;2022-07-18T11:13:45;31.20;95.20
18339;DHT22;9295;44.484;11.240;2022-07-18T11:16:20;31.10;95.80
18339;DHT22;9295;44.484;11.240;2022-07-18T11:19:15;31.20;96.20
18339;DHT22;9295;44.484;11.240;2022-07-18T11:21:45;31.40;95.80
18339;DHT22;9295;44.484;11.240;2022-07-18T11:24:14;31.50;95.90
18339;DHT22;9295;44.484;11.240;2022-07-18T11:26:45;31.70;94.90
18339;DHT22;9295;44.484;11.240;2022-07-18T11:29:19;31.70;94.20
18339;DHT22;9295;44.484;11.240;2022-07-18T11:31:50;31.60;94.30
18339;DHT22;9295;44.484;11.240;2022-07-18T11:34:19;31.50;94.30
18339;DHT22;9295;44.484;11.240;2022-07-18T11:37:07;31.40;94.20
18339;DHT22;9295;44.484;11.240;2022-07-18T11:39:36;31.40;94.20
18339;DHT22;9295;44.484;11.240;2022-07-18T11:42:05;31.50;94.30
18339;DHT22;9295;44.484;11.240;2022-07-18T11:44:35;31.60;94.50
18339;DHT22;9295;44.484;11.240;2022-07-18T11:47:05;31.60;94.50
18339;DHT22;9295;44.484;11.240;2022-07-18T11:49:37;31.60;94.00
18339;DHT22;9295;44.484;11.240;2022-07-18T11:52:07;31.70;93.60
18339;DHT22;9295;44.484;11.240;2022-07-18T11:54:37;31.80;93.90
18339;DHT22;9295;44.484;11.240;2022-07-18T11:57:05;31.70;93.00
18339;DHT22;9295;44.484;11.240;2022-07-18T11:59:37;31.70;93.00
18339;DHT22;9295;44.484;11.240;2022-07-18T12:02:06;31.70;92.50
18339;DHT22;9295;44.484;11.240;2022-07-18T12:04:34;31.60;92.40
18339;DHT22;9295;44.484;11.240;2022-07-18T12:07:17;31.50;91.80
18339;DHT22;9295;44.484;11.240;2022-07-18T12:09:46;31.60;92.40
18339;DHT22;9295;44.484;11.240;2022-07-18T12:12:16;31.60;92.60
18339;DHT22;9295;44.484;11.240;2022-07-18T12:14:57;31.60;92.10
18339;DHT22;9295;44.484;11.240;2022-07-18T12:17:26;31.60;91.30
18339;DHT22;9295;44.484;11.240;2022-07-18T12:20:09;31.70;92.20
18339;DHT22;9295;44.484;11.240;2022-07-18T12:23:05;31.70;92.10
18339;DHT22;9295;44.484;11.240;2022-07-18T12:25:38;31.70;92.40
18339;DHT22;9295;44.484;11.240;2022-07-18T12:28:14;31.70;92.80
18339;DHT22;9295;44.484;11.240;2022-07-18T12:30:45;31.80;91.60
18339;DHT22;9295;44.484;11.240;2022-07-18T12:33:14;31.80;91.00
18339;DHT22;9295;44.484;11.240;2022-07-18T12:35:45;31.80;90.90
18339;DHT22;9295;44.484;11.240;2022-07-18T12:38:14;31.80;90.80
18339;DHT22;9295;44.484;11.240;2022-07-18T12:40:46;31.80;90.60
18339;DHT22;9295;44.484;11.240;2022-07-18T12:43:18;31.90;89.70
18339;DHT22;9295;44.484;11.240;2022-07-18T12:45:51;31.80;89.70
18339;DHT22;9295;44.484;11.240;2022-07-18T12:48:20;31.90;89.30
18339;DHT22;9295;44.484;11.240;2022-07-18T12:50:56;31.80;89.60
18339;DHT22;9295;44.484;11.240;2022-07-18T12:53:26;31.90;89.70
18339;DHT22;9295;44.484;11.240;2022-07-18T12:55:54;31.80;90.10
18339;DHT22;9295;44.484;11.240;2022-07-18T12:58:23;31.90;89.70
18339;DHT22;9295;44.484;11.240;2022-07-18T13:00:53;31.90;90.00
18339;DHT22;9295;44.484;11.240;2022-07-18T13:03:32;32.00;87.80
18339;DHT22;9295;44.484;11.240;2022-07-18T13:06:00;32.00;88.10
18339;DHT22;9295;44.484;11.240;2022-07-18T13:08:29;32.10;86.40
18339;DHT22;9295;44.484;11.240;2022-07-18T13:10:58;32.10;86.70
18339;DHT22;9295;44.484;11.240;2022-07-18T13:13:27;32.10;86.20
18339;DHT22;9295;44.484;11.240;2022-07-18T13:15:57;32.10;83.50
18339;DHT22;9295;44.484;11.240;2022-07-18T13:18:25;32.10;85.30
18339;DHT22;9295;44.484;11.240;2022-07-18T13:20:54;32.10;83.00
18339;DHT22;9295;44.484;11.240;2022-07-18T13:23:23;32.10;82.90
18339;DHT22;9295;44.484;11.240;2022-07-18T13:25:51;32.10;80.40
18339;DHT22;9295;44.484;11.240;2022-07-18T13:28:20;32.10;79.70
18339;DHT22;9295;44.484;11.240;2022-07-18T13:30:49;32.10;80.40
18339;DHT22;9295;44.484;11.240;2022-07-18T13:33:18;32.20;80.70
18339;DHT22;9295;44.484;11.240;2022-07-18T13:35:47;32.40;80.30
18339;DHT22;9295;44.484;11.240;2022-07-18T13:38:16;32.40;79.80
18339;DHT22;9295;44.484;11.240;2022-07-18T13:40:45;32.30;79.60
18339;DHT22;9295;44.484;11.240;2022-07-18T13:43:13;32.30;78.60
18339;DHT22;9295;44.484;11.240;2022-07-18T13:45:42;32.40;79.20
18339;DHT22;9295;44.484;11.240;2022-07-18T13:48:10;32.50;79.60
18339;DHT22;9295;44.484;11.240;2022-07-18T13:50:40;32.50;78.90
18339;DHT22;9295;44.484;11.240;2022-07-18T13:53:09;32.50;78.80
18339;DHT22;9295;44.484;11.240;2022-07-18T13:55:38;32.50;76.40
18339;DHT22;9295;44.484;11.240;2022-07-18T13:58:06;32.50;75.60
18339;DHT22;9295;44.484;11.240;2022-07-18T14:00:36;32.40;76.90
18339;DHT22;9295;44.484;11.240;2022-07-18T14:03:05;32.30;76.40
18339;DHT22;9295;44.484;11.240;2022-07-18T14:05:35;32.40;75.20
18339;DHT22;9295;44.484;11.240;2022-07-18T14:08:06;32.40;76.50
18339;DHT22;9295;44.484;11.240;2022-07-18T14:10:35;32.40;76.40
18339;DHT22;9295;44.484;11.240;2022-07-18T14:13:06;32.40;75.60
18339;DHT22;9295;44.484;11.240;2022-07-18T14:15:37;32.40;75.70
18339;DHT22;9295;44.484;11.240;2022-07-18T14:18:05;32.40;74.80
18339;DHT22;9295;44.484;11.240;2022-07-18T14:20:34;32.40;75.70
18339;DHT22;9295;44.484;11.240;2022-07-18T14:23:02;32.60;75.80
18339;DHT22;9295;44.484;11.240;2022-07-18T14:25:32;32.60;75.10
18339;DHT22;9295;44.484;11.240;2022-07-18T14:28:01;32.50;75.50
18339;DHT22;9295;44.484;11.240;2022-07-18T14:30:32;32.50;74.60
18339;DHT22;9295;44.484;11.240;2022-07-18T14:33:01;32.40;74.60
18339;DHT22;9295;44.484;11.240;2022-07-18T14:35:37;32.40;75.80
18339;DHT22;9295;44.484;11.240;2022-07-18T14:38:06;32.40;76.70
18339;DHT22;9295;44.484;11.240;2022-07-18T14:40:36;32.30;77.30
18339;DHT22;9295;44.484;11.240;2022-07-18T14:43:05;32.40;76.70
18339;DHT22;9295;44.484;11.240;2022-07-18T14:45:34;32.50;74.10
18339;DHT22;9295;44.484;11.240;2022-07-18T14:48:23;32.50;73.20
18339;DHT22;9295;44.484;11.240;2022-07-18T14:50:52;32.60;73.10
18339;DHT22;9295;44.484;11.240;2022-07-18T14:53:20;32.60;72.70
18339;DHT22;9295;44.484;11.240;2022-07-18T14:55:50;32.70;72.70
18339;DHT22;9295;44.484;11.240;2022-07-18T14:58:19;32.70;71.60
18339;DHT22;9295;44.484;11.240;2022-07-18T15:00:48;32.60;71.40
18339;DHT22;9295;44.484;11.240;2022-07-18T15:03:17;32.60;71.90
18339;DHT22;9295;44.484;11.240;2022-07-18T15:06:06;32.60;71.60
18339;DHT22;9295;44.484;11.240;2022-07-18T15:08:37;32.60;71.00
18339;DHT22;9295;44.484;11.240;2022-07-18T15:11:07;32.70;71.30
18339;DHT22;9295;44.484;11.240;2022-07-18T15:13:36;32.80;70.90
18339;DHT22;9295;44.484;11.240;2022-07-18T15:16:05;32.80;71.10
18339;DHT22;9295;44.484;11.240;2022-07-18T15:18:33;32.80;71.00
18339;DHT22;9295;44.484;11.240;2022-07-18T15:21:02;32.90;69.90
18339;DHT22;9295;44.484;11.240;2022-07-18T15:23:31;32.90;69.40
18339;DHT22;9295;44.484;11.240;2022-07-18T15:26:02;32.80;69.30
18339;DHT22;9295;44.484;11.240;2022-07-18T15:28:35;32.80;69.60
18339;DHT22;9295;44.484;11.240;2022-07-18T15:31:04;32.80;70.10
18339;DHT22;9295;44.484;11.240;2022-07-18T15:33:34;32.80;70.50
18339;DHT22;9295;44.484;11.240;2022-07-18T15:36:03;32.90;69.90
18339;DHT22;9295;44.484;11.240;2022-07-18T15:38:34;33.00;70.00
18339;DHT22;9295;44.484;11.240;2022-07-18T15:41:06;33.10;69.60
18339;DHT22;9295;44.484;11.240;2022-07-18T15:43:37;33.00;69.00
18339;DHT22;9295;44.484;11.240;2022-07-18T15:46:05;32.80;69.20
18339;DHT22;9295;44.484;11.240;2022-07-18T15:48:34;32.60;69.40
18339;DHT22;9295;44.484;11.240;2022-07-18T15:51:03;32.80;69.50
18339;DHT22;9295;44.484;11.240;2022-07-18T15:53:35;32.90;69.30
18339;DHT22;9295;44.484;11.240;2022-07-18T15:56:05;33.00;69.30